createdAt,value
2018-07-07T00:02:18.365Z,15.80
2018-07-07T00:04:46.904Z,15.80
2018-07-07T00:09:43.525Z,15.80
2018-07-07T00:12:11.997Z,15.80
2018-07-07T00:14:40.506Z,15.70
2018-07-07T00:17:09.053Z,15.80
2018-07-07T00:19:37.595Z,15.70
2018-07-07T00:22:06.387Z,15.70
2018-07-07T00:24:35.099Z,15.80
2018-07-07T00:27:03.550Z,15.70
2018-07-07T00:29:32.011Z,15.60
2018-07-07T00:32:00.443Z,15.60
2018-07-07T00:34:28.961Z,15.50
2018-07-07T00:36:57.376Z,15.50
2018-07-07T00:39:25.905Z,15.50
2018-07-07T00:41:54.400Z,15.50
2018-07-07T00:44:22.919Z,15.40
2018-07-07T00:46:51.400Z,15.40
2018-07-07T00:49:19.889Z,15.40
2018-07-07T00:51:48.313Z,15.30
2018-07-07T00:54:16.846Z,15.30
2018-07-07T00:56:45.407Z,15.20
2018-07-07T00:59:13.915Z,15.20
2018-07-07T01:01:42.437Z,15.20
2018-07-07T01:04:10.943Z,15.10
2018-07-07T01:06:39.467Z,15.10
2018-07-07T01:09:07.938Z,15.10
2018-07-07T01:11:36.421Z,15.10
2018-07-07T01:14:04.851Z,15.10
2018-07-07T01:16:33.292Z,15.10
2018-07-07T01:19:01.737Z,15.10
2018-07-07T01:21:30.249Z,15.10
2018-07-07T01:23:58.727Z,15.10
2018-07-07T01:26:27.216Z,15.00
2018-07-07T01:28:55.829Z,15.00
2018-07-07T01:31:24.287Z,15.00
2018-07-07T01:33:52.716Z,15.10
2018-07-07T01:36:21.150Z,15.10
2018-07-07T01:38:49.617Z,15.10
2018-07-07T01:41:18.963Z,15.00
2018-07-07T01:43:47.398Z,15.00
2018-07-07T01:46:15.898Z,15.00
2018-07-07T01:48:44.402Z,15.00
2018-07-07T01:51:12.820Z,14.90
2018-07-07T01:53:41.304Z,14.90
2018-07-07T01:56:09.815Z,14.90
2018-07-07T01:58:38.270Z,14.90
2018-07-07T02:01:07.215Z,14.90
2018-07-07T02:03:35.708Z,14.80
2018-07-07T02:06:04.229Z,14.80
2018-07-07T02:08:32.661Z,14.80
2018-07-07T02:11:01.112Z,14.80
2018-07-07T02:13:29.549Z,14.80
2018-07-07T02:15:58.049Z,14.80
2018-07-07T02:18:26.503Z,14.70
2018-07-07T02:20:54.980Z,14.70
2018-07-07T02:23:23.515Z,14.70
2018-07-07T02:25:52.014Z,14.70
2018-07-07T02:28:20.477Z,14.70
2018-07-07T02:30:48.946Z,14.70
2018-07-07T02:33:17.444Z,14.70
2018-07-07T02:35:45.966Z,14.60
2018-07-07T02:38:14.377Z,14.60
2018-07-07T02:40:42.875Z,14.60
2018-07-07T02:43:11.553Z,14.60
2018-07-07T02:45:39.998Z,14.60
2018-07-07T02:48:08.449Z,14.60
2018-07-07T02:50:36.933Z,14.60
2018-07-07T02:53:05.472Z,14.60
2018-07-07T02:55:34.132Z,14.60
2018-07-07T02:58:02.581Z,14.60
2018-07-07T03:00:30.997Z,14.60
2018-07-07T03:02:59.519Z,14.60
2018-07-07T03:05:27.942Z,14.60
2018-07-07T03:07:56.439Z,14.50
2018-07-07T03:10:24.993Z,14.60
2018-07-07T03:12:53.457Z,14.60
2018-07-07T03:15:22.919Z,14.60
2018-07-07T03:17:52.129Z,14.70
2018-07-07T03:20:20.640Z,14.60
2018-07-07T03:22:49.163Z,14.70
2018-07-07T03:25:17.601Z,14.60
2018-07-07T03:27:46.060Z,14.60
2018-07-07T03:30:14.525Z,14.60
2018-07-07T03:32:43.015Z,14.60
2018-07-07T03:35:11.467Z,14.60
2018-07-07T03:37:39.917Z,14.60
2018-07-07T03:40:08.364Z,14.60
2018-07-07T03:42:36.821Z,14.60
2018-07-07T03:45:05.303Z,14.60
2018-07-07T03:47:33.790Z,14.60
2018-07-07T03:50:02.270Z,14.60
2018-07-07T03:52:30.781Z,14.60
2018-07-07T03:54:59.276Z,14.70
2018-07-07T03:57:27.785Z,14.70
2018-07-07T03:59:56.232Z,14.70
2018-07-07T04:02:24.669Z,14.70
2018-07-07T04:04:53.111Z,14.70
2018-07-07T04:07:21.633Z,14.70
2018-07-07T04:09:50.046Z,14.70
2018-07-07T04:12:18.594Z,14.70
2018-07-07T04:14:47.008Z,14.70
2018-07-07T04:17:15.484Z,14.80
2018-07-07T04:19:43.924Z,14.80
2018-07-07T04:22:12.429Z,14.90
2018-07-07T04:24:40.936Z,15.00
2018-07-07T04:27:09.420Z,15.20
2018-07-07T04:29:37.923Z,15.20
2018-07-07T04:32:06.463Z,15.40
2018-07-07T04:34:34.930Z,15.40
2018-07-07T04:37:03.440Z,15.60
2018-07-07T04:39:31.897Z,15.70
2018-07-07T04:42:00.343Z,15.70
2018-07-07T04:44:28.789Z,15.80
2018-07-07T04:46:57.261Z,15.80
2018-07-07T04:49:25.743Z,15.80
2018-07-07T04:51:54.264Z,15.90
2018-07-07T04:54:22.716Z,15.90
2018-07-07T04:56:51.189Z,16.00
2018-07-07T04:59:19.645Z,16.00
2018-07-07T05:01:48.090Z,16.00
2018-07-07T05:04:16.566Z,16.10
2018-07-07T05:06:45.079Z,16.10
2018-07-07T05:09:13.638Z,16.20
2018-07-07T05:11:42.127Z,16.40
2018-07-07T05:14:10.609Z,16.40
2018-07-07T05:16:39.077Z,16.70
2018-07-07T05:19:07.610Z,16.70
2018-07-07T05:21:36.046Z,16.70
2018-07-07T05:24:04.497Z,16.70
2018-07-07T05:26:32.933Z,16.70
2018-07-07T05:29:01.386Z,17.00
2018-07-07T05:31:29.838Z,17.00
2018-07-07T05:33:58.401Z,16.90
2018-07-07T05:36:26.875Z,17.00
2018-07-07T05:38:55.415Z,17.10
2018-07-07T05:41:23.869Z,17.10
2018-07-07T05:43:52.749Z,17.30
2018-07-07T05:46:21.210Z,17.30
2018-07-07T05:48:49.678Z,17.40
2018-07-07T05:51:18.172Z,17.50
2018-07-07T05:53:46.629Z,17.40
2018-07-07T05:56:15.098Z,17.40
2018-07-07T05:58:43.548Z,17.50
2018-07-07T06:01:12.009Z,17.40
2018-07-07T06:03:40.449Z,17.40
2018-07-07T06:06:08.989Z,17.40
2018-07-07T06:08:37.495Z,17.40
2018-07-07T06:11:05.981Z,17.40
2018-07-07T06:13:34.431Z,17.60
2018-07-07T06:16:02.873Z,17.60
2018-07-07T06:18:31.370Z,17.70
2018-07-07T06:20:59.824Z,17.70
2018-07-07T06:23:28.290Z,18.00
2018-07-07T06:25:56.717Z,18.10
2018-07-07T06:28:25.355Z,18.60
2018-07-07T06:30:53.798Z,19.20
2018-07-07T06:33:22.258Z,19.70
2018-07-07T06:35:50.728Z,19.90
2018-07-07T06:38:19.191Z,20.40
2018-07-07T06:40:47.778Z,21.80
2018-07-07T06:43:16.348Z,22.10
2018-07-07T06:45:44.800Z,22.30
2018-07-07T06:48:13.238Z,21.90
2018-07-07T06:50:41.724Z,21.80
2018-07-07T06:53:10.222Z,22.20
2018-07-07T06:55:38.794Z,22.50
2018-07-07T06:58:07.269Z,21.90
2018-07-07T07:00:35.762Z,21.00
2018-07-07T07:03:04.177Z,20.90
2018-07-07T07:05:32.648Z,20.60
2018-07-07T07:08:01.327Z,20.50
2018-07-07T07:10:29.810Z,20.90
2018-07-07T07:12:58.277Z,22.70
2018-07-07T07:15:26.775Z,23.40
2018-07-07T07:17:55.255Z,24.00
2018-07-07T07:20:23.752Z,25.00
2018-07-07T07:22:52.513Z,24.70
2018-07-07T07:25:21.509Z,24.00
2018-07-07T07:27:49.943Z,23.50
2018-07-07T07:30:18.428Z,24.80
2018-07-07T07:32:46.841Z,24.30
2018-07-07T07:35:15.428Z,24.10
2018-07-07T07:37:43.933Z,24.10
2018-07-07T07:40:12.623Z,25.40
2018-07-07T07:42:41.117Z,25.80
2018-07-07T07:45:09.575Z,26.50
2018-07-07T07:47:38.013Z,26.60
2018-07-07T07:50:06.535Z,28.50
2018-07-07T07:52:35.072Z,29.40
2018-07-07T07:55:03.588Z,30.70
2018-07-07T07:57:32.100Z,32.20
2018-07-07T08:00:00.621Z,32.20
2018-07-07T08:02:29.108Z,32.30
2018-07-07T08:04:58.909Z,31.90
2018-07-07T08:07:27.555Z,31.80
2018-07-07T08:12:24.138Z,30.50
2018-07-07T08:14:53.082Z,29.80
2018-07-07T08:17:21.794Z,29.50
2018-07-07T08:19:50.275Z,29.30
2018-07-07T08:22:18.729Z,31.00
2018-07-07T08:24:47.191Z,31.30
2018-07-07T08:27:16.109Z,31.80
2018-07-07T08:29:44.909Z,31.90
2018-07-07T08:32:13.388Z,32.10
2018-07-07T08:34:41.804Z,32.20
2018-07-07T08:37:10.320Z,32.50
2018-07-07T08:39:38.749Z,32.30
2018-07-07T08:42:07.238Z,30.70
2018-07-07T08:44:35.704Z,29.70
2018-07-07T08:47:04.447Z,30.00
2018-07-07T08:49:32.901Z,30.80
2018-07-07T08:52:01.357Z,31.20
2018-07-07T08:54:29.899Z,31.50
2018-07-07T08:56:58.513Z,31.90
2018-07-07T08:59:26.985Z,32.00
2018-07-07T09:01:55.515Z,32.70
2018-07-07T09:04:24.026Z,33.20
2018-07-07T09:06:52.474Z,33.30
2018-07-07T09:11:49.183Z,32.00
2018-07-07T09:14:17.713Z,32.50
2018-07-07T09:16:46.129Z,32.90
2018-07-07T09:19:14.627Z,33.40
2018-07-07T09:21:43.100Z,32.50
2018-07-07T09:24:11.521Z,32.30
2018-07-07T09:26:40.023Z,32.40
2018-07-07T09:29:08.449Z,32.60
2018-07-07T09:31:36.943Z,33.40
2018-07-07T09:34:05.445Z,34.30
2018-07-07T09:36:33.967Z,34.80
2018-07-07T09:39:02.436Z,33.60
2018-07-07T09:41:30.965Z,32.40
2018-07-07T09:43:59.437Z,32.50
2018-07-07T09:46:27.947Z,32.30
2018-07-07T09:48:56.393Z,32.40
2018-07-07T09:53:53.029Z,32.70
2018-07-07T09:56:21.540Z,34.70
2018-07-07T09:58:50.010Z,34.80
2018-07-07T10:01:18.715Z,32.90
2018-07-07T10:03:47.197Z,31.80
2018-07-07T10:06:15.637Z,30.70
2018-07-07T10:08:44.115Z,30.50
2018-07-07T10:11:12.537Z,29.30
2018-07-07T10:13:41.003Z,28.80
2018-07-07T10:16:09.448Z,29.70
2018-07-07T10:18:37.897Z,30.70
2018-07-07T10:21:06.317Z,31.60
2018-07-07T10:23:34.792Z,32.10
2018-07-07T10:26:03.284Z,33.30
2018-07-07T10:28:31.747Z,32.80
2018-07-07T10:31:00.199Z,32.50
2018-07-07T10:33:28.656Z,32.80
2018-07-07T10:35:57.101Z,33.10
2018-07-07T10:38:25.647Z,31.20
2018-07-07T10:40:54.065Z,29.80
2018-07-07T10:43:22.540Z,28.00
2018-07-07T10:45:51.176Z,27.60
2018-07-07T10:48:19.514Z,26.30
2018-07-07T10:50:47.953Z,26.00
2018-07-07T10:53:16.384Z,25.90
2018-07-07T10:55:44.852Z,26.90
2018-07-07T10:58:13.308Z,26.90
2018-07-07T11:00:41.744Z,26.30
2018-07-07T11:03:10.213Z,25.60
2018-07-07T11:05:38.661Z,25.00
2018-07-07T11:08:07.293Z,24.50
2018-07-07T11:10:35.776Z,24.30
2018-07-07T11:13:04.392Z,24.50
2018-07-07T11:15:32.942Z,24.60
2018-07-07T11:18:01.464Z,24.50
2018-07-07T11:20:29.973Z,24.40
2018-07-07T11:22:58.457Z,24.20
2018-07-07T11:25:26.942Z,24.10
2018-07-07T11:27:55.393Z,24.00
2018-07-07T11:30:23.867Z,24.00
2018-07-07T11:32:53.589Z,23.90
2018-07-07T11:35:22.066Z,23.80
2018-07-07T11:37:50.826Z,23.50
2018-07-07T11:40:19.296Z,23.40
2018-07-07T11:42:47.938Z,23.50
2018-07-07T11:45:16.418Z,23.60
2018-07-07T11:47:44.924Z,23.60
2018-07-07T11:50:13.475Z,23.50
2018-07-07T11:52:41.917Z,23.30
2018-07-07T11:55:10.385Z,23.20
2018-07-07T11:57:38.915Z,23.10
2018-07-07T12:00:07.429Z,23.10
2018-07-07T12:02:35.860Z,23.10
2018-07-07T12:05:04.350Z,23.40
2018-07-07T12:07:32.810Z,23.50
2018-07-07T12:10:01.367Z,23.70
2018-07-07T12:12:29.835Z,23.70
2018-07-07T12:14:58.262Z,23.80
2018-07-07T12:17:26.760Z,23.70
2018-07-07T12:19:55.220Z,23.50
2018-07-07T12:22:23.692Z,23.60
2018-07-07T12:24:52.197Z,23.70
2018-07-07T12:27:20.660Z,23.70
2018-07-07T12:29:49.127Z,23.70
2018-07-07T12:32:17.621Z,23.70
2018-07-07T12:34:46.040Z,23.70
2018-07-07T12:39:42.754Z,24.10
2018-07-07T12:42:11.261Z,24.10
2018-07-07T12:44:39.722Z,24.10
2018-07-07T12:47:08.181Z,24.00
2018-07-07T12:49:36.647Z,23.80
2018-07-07T12:52:05.227Z,23.70
2018-07-07T12:54:33.658Z,23.50
2018-07-07T12:57:02.216Z,23.40
2018-07-07T12:59:30.657Z,23.30
2018-07-07T13:01:59.112Z,23.30
2018-07-07T13:04:27.569Z,23.30
2018-07-07T13:06:56.093Z,23.50
2018-07-07T13:09:24.525Z,23.60
2018-07-07T13:11:52.973Z,23.70
2018-07-07T13:14:21.437Z,23.70
2018-07-07T13:16:49.861Z,23.90
2018-07-07T13:19:18.340Z,24.10
2018-07-07T13:21:46.841Z,24.10
2018-07-07T13:24:15.318Z,24.10
2018-07-07T13:26:43.771Z,23.70
2018-07-07T13:29:12.241Z,23.50
2018-07-07T13:31:40.705Z,23.50
2018-07-07T13:34:09.235Z,23.40
2018-07-07T13:36:37.755Z,23.30
2018-07-07T13:39:07.562Z,23.10
2018-07-07T13:44:04.372Z,23.20
2018-07-07T13:46:32.825Z,23.20
2018-07-07T13:49:01.305Z,23.20
2018-07-07T13:51:29.775Z,23.30
2018-07-07T13:53:58.296Z,23.30
2018-07-07T13:56:26.866Z,23.20
2018-07-07T13:58:55.342Z,23.20
2018-07-07T14:01:23.797Z,23.20
2018-07-07T14:03:52.236Z,23.30
2018-07-07T14:06:20.859Z,23.30
2018-07-07T14:08:49.284Z,23.40
2018-07-07T14:11:17.779Z,23.40
2018-07-07T14:13:46.228Z,23.30
2018-07-07T14:16:14.857Z,23.30
2018-07-07T14:18:43.309Z,23.30
2018-07-07T14:21:13.386Z,23.10
2018-07-07T14:23:41.851Z,23.10
2018-07-07T14:26:10.305Z,23.00
2018-07-07T14:28:38.928Z,23.10
2018-07-07T14:31:07.449Z,23.10
2018-07-07T14:33:36.187Z,23.10
2018-07-07T14:36:04.735Z,23.10
2018-07-07T14:38:35.196Z,22.80
2018-07-07T14:41:10.971Z,22.90
2018-07-07T14:43:48.744Z,22.80
2018-07-07T14:46:17.451Z,22.80
2018-07-07T14:48:45.972Z,22.80
2018-07-07T14:51:14.500Z,22.80
2018-07-07T14:53:43.074Z,23.10
2018-07-07T14:56:11.601Z,23.10
2018-07-07T14:58:40.201Z,23.20
2018-07-07T15:01:08.913Z,23.20
2018-07-07T15:03:37.614Z,23.40
2018-07-07T15:06:06.317Z,23.40
2018-07-07T15:08:34.839Z,23.40
2018-07-07T15:11:03.450Z,23.30
2018-07-07T15:13:32.316Z,23.10
2018-07-07T15:16:00.863Z,23.00
2018-07-07T15:18:29.808Z,22.90
2018-07-07T15:20:58.270Z,22.90
2018-07-07T15:23:26.750Z,22.90
2018-07-07T15:25:55.369Z,23.00
2018-07-07T15:28:23.890Z,23.00
2018-07-07T15:30:52.355Z,22.90
2018-07-07T15:33:20.848Z,22.80
2018-07-07T15:35:49.386Z,22.70
2018-07-07T15:38:17.936Z,22.60
2018-07-07T15:40:46.433Z,22.60
2018-07-07T15:43:14.987Z,22.60
2018-07-07T15:46:03.820Z,22.50
2018-07-07T15:48:32.277Z,22.60
2018-07-07T15:51:00.801Z,22.60
2018-07-07T15:53:29.465Z,22.70
2018-07-07T15:55:57.934Z,22.50
2018-07-07T15:58:26.385Z,22.60
2018-07-07T16:00:54.837Z,22.70
2018-07-07T16:03:23.344Z,22.70
2018-07-07T16:05:51.833Z,22.70
2018-07-07T16:08:20.277Z,22.70
2018-07-07T16:10:48.757Z,22.60
2018-07-07T16:13:17.299Z,22.60
2018-07-07T16:15:45.820Z,22.60
2018-07-07T16:18:14.304Z,22.40
2018-07-07T16:20:42.720Z,22.30
2018-07-07T16:23:11.247Z,22.30
2018-07-07T16:28:07.829Z,22.30
2018-07-07T16:30:36.293Z,22.20
2018-07-07T16:33:05.035Z,22.20
2018-07-07T16:35:33.452Z,22.10
2018-07-07T16:38:02.000Z,22.10
2018-07-07T16:40:30.482Z,22.10
2018-07-07T16:43:00.413Z,22.30
2018-07-07T16:45:28.965Z,22.40
2018-07-07T16:47:57.457Z,22.40
2018-07-07T16:50:26.573Z,22.40
2018-07-07T16:52:55.087Z,22.30
2018-07-07T16:55:23.655Z,22.10
2018-07-07T16:57:52.153Z,22.00
2018-07-07T17:00:20.683Z,21.90
2018-07-07T17:02:49.834Z,21.80
2018-07-07T17:05:18.334Z,21.60
2018-07-07T17:07:47.445Z,21.60
2018-07-07T17:10:17.137Z,21.50
2018-07-07T17:12:45.831Z,21.50
2018-07-07T17:15:14.414Z,21.60
2018-07-07T17:17:42.921Z,21.50
2018-07-07T17:20:11.432Z,21.50
2018-07-07T17:22:39.914Z,21.50
2018-07-07T17:25:08.433Z,21.50
2018-07-07T17:27:36.935Z,21.40
2018-07-07T17:30:05.605Z,21.30
2018-07-07T17:32:34.297Z,21.30
2018-07-07T17:35:02.768Z,21.20
2018-07-07T17:37:31.316Z,21.20
2018-07-07T17:40:00.034Z,21.20
2018-07-07T17:42:29.353Z,21.10
2018-07-07T17:44:59.118Z,21.10
2018-07-07T17:47:28.547Z,21.10
2018-07-07T17:49:58.002Z,21.10
2018-07-07T17:52:26.709Z,21.10
2018-07-07T17:54:55.260Z,21.10
2018-07-07T17:57:23.812Z,21.10
2018-07-07T17:59:53.822Z,21.10
2018-07-07T18:02:22.583Z,21.10
2018-07-07T18:04:51.119Z,21.10
2018-07-07T18:07:19.634Z,21.00
2018-07-07T18:09:48.057Z,21.00
2018-07-07T18:12:16.517Z,21.00
2018-07-07T18:14:45.054Z,21.00
2018-07-07T18:17:13.501Z,21.00
2018-07-07T18:19:42.009Z,21.00
2018-07-07T18:22:10.565Z,20.90
2018-07-07T18:27:07.304Z,20.90
2018-07-07T18:29:35.805Z,20.80
2018-07-07T18:32:05.525Z,20.70
2018-07-07T18:34:34.077Z,20.70
2018-07-07T18:37:02.798Z,20.50
2018-07-07T18:39:31.373Z,20.50
2018-07-07T18:41:59.874Z,20.40
2018-07-07T18:44:28.362Z,20.30
2018-07-07T18:46:56.837Z,20.10
2018-07-07T18:49:25.330Z,20.00
2018-07-07T18:51:53.848Z,19.90
2018-07-07T18:54:22.367Z,19.90
2018-07-07T18:56:51.240Z,19.70
2018-07-07T18:59:19.761Z,19.70
2018-07-07T19:01:48.471Z,19.50
2018-07-07T19:04:17.007Z,19.40
2018-07-07T19:06:45.459Z,19.40
2018-07-07T19:09:14.607Z,19.30
2018-07-07T19:11:43.125Z,19.20
2018-07-07T19:14:11.611Z,19.10
2018-07-07T19:16:40.085Z,19.00
2018-07-07T19:19:08.687Z,18.90
2018-07-07T19:21:42.591Z,18.90
2018-07-07T19:24:16.218Z,18.80
2018-07-07T19:26:50.104Z,18.70
2018-07-07T19:29:18.991Z,18.60
2018-07-07T19:31:52.893Z,18.60
2018-07-07T19:34:26.711Z,18.50
2018-07-07T19:37:00.706Z,18.40
2018-07-07T19:39:29.178Z,18.30
2018-07-07T19:41:58.255Z,18.30
2018-07-07T19:44:26.918Z,18.20
2018-07-07T19:46:55.419Z,18.20
2018-07-07T19:49:23.858Z,18.20
2018-07-07T19:51:52.360Z,18.10
2018-07-07T19:54:20.998Z,18.10
2018-07-07T19:56:49.513Z,18.00
2018-07-07T19:59:18.013Z,18.00
2018-07-07T20:01:46.558Z,18.00
2018-07-07T20:04:15.315Z,17.90
2018-07-07T20:06:43.833Z,18.00
2018-07-07T20:09:12.312Z,17.90
2018-07-07T20:11:40.778Z,17.90
2018-07-07T20:14:09.285Z,17.90
2018-07-07T20:16:49.029Z,17.90
2018-07-07T20:19:19.420Z,17.90
2018-07-07T20:21:57.100Z,17.90
2018-07-07T20:24:30.521Z,17.80
2018-07-07T20:27:04.417Z,17.80
2018-07-07T20:29:33.230Z,17.80
2018-07-07T20:32:01.797Z,17.80
2018-07-07T20:34:31.261Z,17.80
2018-07-07T20:36:59.748Z,17.70
2018-07-07T20:39:28.392Z,17.70
2018-07-07T20:41:56.883Z,17.70
2018-07-07T20:44:25.332Z,17.70
2018-07-07T20:46:53.821Z,17.70
2018-07-07T20:49:22.288Z,17.60
2018-07-07T20:51:50.739Z,17.60
2018-07-07T20:54:19.277Z,17.50
2018-07-07T20:56:47.875Z,17.50
2018-07-07T20:59:16.337Z,17.50
2018-07-07T21:01:44.835Z,17.50
2018-07-07T21:04:13.472Z,17.50
2018-07-07T21:06:41.980Z,17.40
2018-07-07T21:09:10.516Z,17.40
2018-07-07T21:11:38.964Z,17.40
2018-07-07T21:14:07.477Z,17.40
2018-07-07T21:16:36.009Z,17.30
2018-07-07T21:19:04.714Z,17.30
2018-07-07T21:21:33.173Z,17.30
2018-07-07T21:24:01.703Z,17.30
2018-07-07T21:26:30.312Z,17.30
2018-07-07T21:28:58.820Z,17.30
2018-07-07T21:31:27.269Z,17.30
2018-07-07T21:33:55.724Z,17.30
2018-07-07T21:36:24.176Z,17.30
2018-07-07T21:38:52.873Z,17.30
2018-07-07T21:41:21.276Z,17.30
2018-07-07T21:43:49.876Z,17.30
2018-07-07T21:48:46.464Z,17.30
2018-07-07T21:51:14.945Z,17.30
2018-07-07T21:53:43.475Z,17.30
2018-07-07T21:56:11.940Z,17.20
2018-07-07T21:58:40.386Z,17.20
2018-07-07T22:01:43.721Z,17.20
2018-07-07T22:04:17.697Z,17.20
2018-07-07T22:06:51.520Z,17.10
2018-07-07T22:09:20.116Z,17.10
2018-07-07T22:11:48.833Z,17.10
2018-07-07T22:14:17.337Z,17.10
2018-07-07T22:16:45.832Z,17.00
2018-07-07T22:19:14.297Z,17.00
2018-07-07T22:24:16.642Z,17.00
2018-07-07T22:26:46.117Z,17.00
2018-07-07T22:29:14.653Z,17.00
2018-07-07T22:31:43.099Z,17.00
2018-07-07T22:34:11.625Z,16.90
2018-07-07T22:36:40.081Z,16.90
2018-07-07T22:39:08.781Z,16.90
2018-07-07T22:41:50.859Z,16.90
2018-07-07T22:44:19.378Z,16.80
2018-07-07T22:46:47.896Z,16.90
2018-07-07T22:49:16.692Z,16.80
2018-07-07T22:51:45.150Z,16.80
2018-07-07T22:54:14.262Z,16.80
2018-07-07T22:56:43.143Z,16.70
2018-07-07T23:01:40.891Z,16.70
2018-07-07T23:04:09.409Z,16.70
2018-07-07T23:06:42.109Z,16.70
2018-07-07T23:09:11.754Z,16.70
2018-07-07T23:11:40.306Z,16.70
2018-07-07T23:14:09.024Z,16.70
2018-07-07T23:16:37.559Z,16.70
2018-07-07T23:19:06.902Z,16.70
2018-07-07T23:21:35.390Z,16.80
2018-07-07T23:24:04.503Z,16.80
2018-07-07T23:26:33.107Z,16.80
2018-07-07T23:29:02.545Z,16.70
2018-07-07T23:31:31.125Z,16.70
2018-07-07T23:33:59.596Z,16.70
2018-07-07T23:36:28.294Z,16.70
2018-07-07T23:38:56.808Z,16.70
2018-07-07T23:41:25.273Z,16.70
2018-07-07T23:43:53.861Z,16.70
2018-07-07T23:46:22.390Z,16.70
2018-07-07T23:48:50.892Z,16.60
2018-07-07T23:51:19.389Z,16.50
2018-07-07T23:53:47.818Z,16.50
2018-07-07T23:56:16.316Z,16.50
2018-07-07T23:58:44.827Z,16.50
